sensor_id;sensor_type;location;lat;lon;timestamp;temperature;humidity
17405;DHT22;8820;54.604;18.226;2023-01-26T00:01:51;1.70;99.90
17405;DHT22;8820;54.604;18.226;2023-01-26T00:04:20;1.80;99.90
17405;DHT22;8820;54.604;18.226;2023-01-26T00:06:54;1.80;99.90
17405;DHT22;8820;54.604;18.226;2023-01-26T00:09:23;1.90;99.90
17405;DHT22;8820;54.604;18.226;2023-01-26T00:12:02;1.80;99.80
17405;DHT22;8820;54.604;18.226;2023-01-26T00:14:32;1.80;99.90
17405;DHT22;8820;54.604;18.226;2023-01-26T00:17:19;1.80;99.90
17405;DHT22;8820;54.604;18.226;2023-01-26T00:19:55;1.80;99.90
17405;DHT22;8820;54.604;18.226;2023-01-26T00:22:25;1.80;99.90
17405;DHT22;8820;54.604;18.226;2023-01-26T00:24:55;1.70;99.90
17405;DHT22;8820;54.604;18.226;2023-01-26T00:27:24;1.60;99.90
17405;DHT22;8820;54.604;18.226;2023-01-26T00:29:55;1.60;99.90
17405;DHT22;8820;54.604;18.226;2023-01-26T00:32:26;1.60;99.90
17405;DHT22;8820;54.604;18.226;2023-01-26T00:34:55;1.60;99.90
17405;DHT22;8820;54.604;18.226;2023-01-26T00:37:23;1.60;99.90
17405;DHT22;8820;54.604;18.226;2023-01-26T00:39:52;1.60;99.90
17405;DHT22;8820;54.604;18.226;2023-01-26T00:42:23;1.60;99.90
17405;DHT22;8820;54.604;18.226;2023-01-26T00:44:52;1.70;99.90
17405;DHT22;8820;54.604;18.226;2023-01-26T00:47:25;1.70;99.90
17405;DHT22;8820;54.604;18.226;2023-01-26T00:49:56;1.60;99.90
17405;DHT22;8820;54.604;18.226;2023-01-26T00:52:30;1.60;99.90
17405;DHT22;8820;54.604;18.226;2023-01-26T00:55:03;1.60;99.90
17405;DHT22;8820;54.604;18.226;2023-01-26T00:57:32;1.70;99.90
17405;DHT22;8820;54.604;18.226;2023-01-26T01:00:09;1.80;99.90
17405;DHT22;8820;54.604;18.226;2023-01-26T01:02:54;1.80;99.90
17405;DHT22;8820;54.604;18.226;2023-01-26T01:05:25;1.90;99.90
17405;DHT22;8820;54.604;18.226;2023-01-26T01:07:54;1.80;99.90
17405;DHT22;8820;54.604;18.226;2023-01-26T01:10:30;1.70;99.90
17405;DHT22;8820;54.604;18.226;2023-01-26T01:12:59;1.60;99.90
17405;DHT22;8820;54.604;18.226;2023-01-26T01:16:00;1.60;99.90
17405;DHT22;8820;54.604;18.226;2023-01-26T01:18:34;1.60;99.90
17405;DHT22;8820;54.604;18.226;2023-01-26T01:21:16;1.70;99.90
17405;DHT22;8820;54.604;18.226;2023-01-26T01:23:45;1.80;99.90
17405;DHT22;8820;54.604;18.226;2023-01-26T01:26:15;1.70;99.90
17405;DHT22;8820;54.604;18.226;2023-01-26T01:28:44;1.70;99.90
17405;DHT22;8820;54.604;18.226;2023-01-26T01:31:14;1.70;99.90
17405;DHT22;8820;54.604;18.226;2023-01-26T01:33:46;1.70;99.90
17405;DHT22;8820;54.604;18.226;2023-01-26T01:36:28;1.80;99.90
17405;DHT22;8820;54.604;18.226;2023-01-26T01:39:04;1.80;99.90
17405;DHT22;8820;54.604;18.226;2023-01-26T01:41:45;1.70;99.90
17405;DHT22;8820;54.604;18.226;2023-01-26T01:44:16;1.70;99.90
17405;DHT22;8820;54.604;18.226;2023-01-26T01:46:51;1.70;99.90
17405;DHT22;8820;54.604;18.226;2023-01-26T01:49:26;1.70;99.90
17405;DHT22;8820;54.604;18.226;2023-01-26T01:51:58;1.80;99.90
17405;DHT22;8820;54.604;18.226;2023-01-26T01:54:32;1.80;99.90
17405;DHT22;8820;54.604;18.226;2023-01-26T01:57:12;1.80;99.90
17405;DHT22;8820;54.604;18.226;2023-01-26T01:59:48;1.80;99.90
17405;DHT22;8820;54.604;18.226;2023-01-26T02:02:23;1.90;99.90
17405;DHT22;8820;54.604;18.226;2023-01-26T02:04:57;1.90;99.90
17405;DHT22;8820;54.604;18.226;2023-01-26T02:07:30;1.90;99.90
17405;DHT22;8820;54.604;18.226;2023-01-26T02:10:03;1.90;99.90
17405;DHT22;8820;54.604;18.226;2023-01-26T02:12:50;1.90;99.90
17405;DHT22;8820;54.604;18.226;2023-01-26T02:15:45;1.90;99.90
17405;DHT22;8820;54.604;18.226;2023-01-26T02:18:16;1.90;99.90
17405;DHT22;8820;54.604;18.226;2023-01-26T02:20:49;1.90;99.90
17405;DHT22;8820;54.604;18.226;2023-01-26T02:23:33;1.80;99.90
17405;DHT22;8820;54.604;18.226;2023-01-26T02:26:10;1.80;99.90
17405;DHT22;8820;54.604;18.226;2023-01-26T02:28:49;1.90;99.90
17405;DHT22;8820;54.604;18.226;2023-01-26T02:31:19;1.90;99.90
17405;DHT22;8820;54.604;18.226;2023-01-26T02:33:54;1.90;99.90
17405;DHT22;8820;54.604;18.226;2023-01-26T02:36:24;1.90;99.90
17405;DHT22;8820;54.604;18.226;2023-01-26T02:39:07;1.90;99.90
17405;DHT22;8820;54.604;18.226;2023-01-26T02:41:41;1.90;99.90
17405;DHT22;8820;54.604;18.226;2023-01-26T02:44:28;1.90;99.90
17405;DHT22;8820;54.604;18.226;2023-01-26T02:46:58;1.90;99.90
17405;DHT22;8820;54.604;18.226;2023-01-26T02:49:41;1.90;99.90
17405;DHT22;8820;54.604;18.226;2023-01-26T02:52:23;1.80;99.90
17405;DHT22;8820;54.604;18.226;2023-01-26T02:54:59;1.80;99.90
17405;DHT22;8820;54.604;18.226;2023-01-26T02:57:47;1.80;99.90
17405;DHT22;8820;54.604;18.226;2023-01-26T03:00:33;1.80;99.90
17405;DHT22;8820;54.604;18.226;2023-01-26T03:03:10;1.70;99.90
17405;DHT22;8820;54.604;18.226;2023-01-26T03:05:39;1.60;99.90
17405;DHT22;8820;54.604;18.226;2023-01-26T03:08:09;1.60;99.90
17405;DHT22;8820;54.604;18.226;2023-01-26T03:10:38;1.70;99.90
17405;DHT22;8820;54.604;18.226;2023-01-26T03:13:18;1.70;99.90
17405;DHT22;8820;54.604;18.226;2023-01-26T03:15:52;1.80;99.90
17405;DHT22;8820;54.604;18.226;2023-01-26T03:18:22;1.80;99.90
17405;DHT22;8820;54.604;18.226;2023-01-26T03:21:12;1.80;99.90
17405;DHT22;8820;54.604;18.226;2023-01-26T03:24:16;1.90;99.90
17405;DHT22;8820;54.604;18.226;2023-01-26T03:27:16;1.80;99.90
17405;DHT22;8820;54.604;18.226;2023-01-26T03:29:58;1.80;99.90
17405;DHT22;8820;54.604;18.226;2023-01-26T03:32:27;1.80;99.90
17405;DHT22;8820;54.604;18.226;2023-01-26T03:35:14;1.70;99.90
17405;DHT22;8820;54.604;18.226;2023-01-26T03:37:52;1.70;99.90
17405;DHT22;8820;54.604;18.226;2023-01-26T03:40:38;1.60;99.90
17405;DHT22;8820;54.604;18.226;2023-01-26T03:43:34;1.60;99.90
17405;DHT22;8820;54.604;18.226;2023-01-26T03:46:21;1.60;99.90
17405;DHT22;8820;54.604;18.226;2023-01-26T03:49:10;1.60;99.90
17405;DHT22;8820;54.604;18.226;2023-01-26T03:51:56;1.60;99.90
17405;DHT22;8820;54.604;18.226;2023-01-26T03:54:50;1.70;99.90
17405;DHT22;8820;54.604;18.226;2023-01-26T03:57:42;1.80;99.90
17405;DHT22;8820;54.604;18.226;2023-01-26T04:00:17;1.90;99.90
17405;DHT22;8820;54.604;18.226;2023-01-26T04:02:55;1.90;99.90
17405;DHT22;8820;54.604;18.226;2023-01-26T04:05:42;1.90;99.90
17405;DHT22;8820;54.604;18.226;2023-01-26T04:09:24;2.00;99.90
17405;DHT22;8820;54.604;18.226;2023-01-26T04:11:54;2.00;99.90
17405;DHT22;8820;54.604;18.226;2023-01-26T04:14:23;2.00;99.90
17405;DHT22;8820;54.604;18.226;2023-01-26T04:17:31;2.00;99.90
17405;DHT22;8820;54.604;18.226;2023-01-26T04:20:25;1.90;99.90
17405;DHT22;8820;54.604;18.226;2023-01-26T04:23:36;1.90;99.90
17405;DHT22;8820;54.604;18.226;2023-01-26T04:26:13;2.00;99.90
17405;DHT22;8820;54.604;18.226;2023-01-26T04:28:43;2.00;99.90
17405;DHT22;8820;54.604;18.226;2023-01-26T04:31:12;1.90;99.90
17405;DHT22;8820;54.604;18.226;2023-01-26T04:33:44;1.80;99.90
17405;DHT22;8820;54.604;18.226;2023-01-26T04:36:14;1.80;99.90
17405;DHT22;8820;54.604;18.226;2023-01-26T04:38:52;1.70;99.90
17405;DHT22;8820;54.604;18.226;2023-01-26T04:41:22;1.70;99.90
17405;DHT22;8820;54.604;18.226;2023-01-26T04:44:00;1.60;99.90
17405;DHT22;8820;54.604;18.226;2023-01-26T04:46:29;1.70;99.90
17405;DHT22;8820;54.604;18.226;2023-01-26T04:49:02;1.60;99.90
17405;DHT22;8820;54.604;18.226;2023-01-26T04:51:33;1.60;99.90
17405;DHT22;8820;54.604;18.226;2023-01-26T04:54:02;1.60;99.90
17405;DHT22;8820;54.604;18.226;2023-01-26T04:56:36;1.60;99.90
17405;DHT22;8820;54.604;18.226;2023-01-26T04:59:08;1.70;99.90
17405;DHT22;8820;54.604;18.226;2023-01-26T05:01:41;1.70;99.90
17405;DHT22;8820;54.604;18.226;2023-01-26T05:04:18;1.80;99.90
17405;DHT22;8820;54.604;18.226;2023-01-26T05:06:55;1.80;99.90
17405;DHT22;8820;54.604;18.226;2023-01-26T05:09:26;1.80;99.90
17405;DHT22;8820;54.604;18.226;2023-01-26T05:12:27;1.80;99.90
17405;DHT22;8820;54.604;18.226;2023-01-26T05:15:30;1.80;99.90
17405;DHT22;8820;54.604;18.226;2023-01-26T05:18:05;1.60;99.90
17405;DHT22;8820;54.604;18.226;2023-01-26T05:21:06;1.70;99.90
17405;DHT22;8820;54.604;18.226;2023-01-26T05:23:44;1.60;99.90
17405;DHT22;8820;54.604;18.226;2023-01-26T05:26:52;1.60;99.90
17405;DHT22;8820;54.604;18.226;2023-01-26T05:29:41;1.60;99.90
17405;DHT22;8820;54.604;18.226;2023-01-26T05:32:10;1.60;99.90
17405;DHT22;8820;54.604;18.226;2023-01-26T05:34:40;1.60;99.90
17405;DHT22;8820;54.604;18.226;2023-01-26T05:37:13;1.50;99.90
17405;DHT22;8820;54.604;18.226;2023-01-26T05:39:45;1.70;99.90
17405;DHT22;8820;54.604;18.226;2023-01-26T05:42:14;1.70;99.90
17405;DHT22;8820;54.604;18.226;2023-01-26T05:45:00;1.60;99.90
17405;DHT22;8820;54.604;18.226;2023-01-26T05:47:29;1.50;99.90
17405;DHT22;8820;54.604;18.226;2023-01-26T05:50:18;1.60;99.90
17405;DHT22;8820;54.604;18.226;2023-01-26T05:53:14;1.60;99.90
17405;DHT22;8820;54.604;18.226;2023-01-26T05:55:45;1.60;99.90
17405;DHT22;8820;54.604;18.226;2023-01-26T05:58:15;1.60;99.90
17405;DHT22;8820;54.604;18.226;2023-01-26T06:00:44;1.60;99.90
17405;DHT22;8820;54.604;18.226;2023-01-26T06:03:20;1.50;99.90
17405;DHT22;8820;54.604;18.226;2023-01-26T06:05:53;1.50;99.90
17405;DHT22;8820;54.604;18.226;2023-01-26T06:08:37;1.60;99.90
17405;DHT22;8820;54.604;18.226;2023-01-26T06:11:26;1.60;99.90
17405;DHT22;8820;54.604;18.226;2023-01-26T06:14:22;1.70;99.90
17405;DHT22;8820;54.604;18.226;2023-01-26T06:16:59;1.60;99.90
17405;DHT22;8820;54.604;18.226;2023-01-26T06:19:28;1.60;99.90
17405;DHT22;8820;54.604;18.226;2023-01-26T06:21:59;1.50;99.90
17405;DHT22;8820;54.604;18.226;2023-01-26T06:24:31;1.50;99.90
17405;DHT22;8820;54.604;18.226;2023-01-26T06:27:03;1.50;99.90
17405;DHT22;8820;54.604;18.226;2023-01-26T06:29:33;1.50;99.90
17405;DHT22;8820;54.604;18.226;2023-01-26T06:32:02;1.60;99.90
17405;DHT22;8820;54.604;18.226;2023-01-26T06:34:31;1.60;99.90
17405;DHT22;8820;54.604;18.226;2023-01-26T06:37:15;1.70;99.90
17405;DHT22;8820;54.604;18.226;2023-01-26T06:39:53;1.60;99.90
17405;DHT22;8820;54.604;18.226;2023-01-26T06:42:23;1.60;99.90
17405;DHT22;8820;54.604;18.226;2023-01-26T06:45:01;1.60;99.90
17405;DHT22;8820;54.604;18.226;2023-01-26T06:47:30;1.70;99.90
17405;DHT22;8820;54.604;18.226;2023-01-26T06:50:09;1.60;99.90
17405;DHT22;8820;54.604;18.226;2023-01-26T06:52:41;1.60;99.90
17405;DHT22;8820;54.604;18.226;2023-01-26T06:55:33;1.60;99.90
17405;DHT22;8820;54.604;18.226;2023-01-26T06:58:42;1.60;99.90
17405;DHT22;8820;54.604;18.226;2023-01-26T07:01:40;1.60;99.90
17405;DHT22;8820;54.604;18.226;2023-01-26T07:04:25;1.60;99.90
17405;DHT22;8820;54.604;18.226;2023-01-26T07:06:54;1.60;99.90
17405;DHT22;8820;54.604;18.226;2023-01-26T07:09:23;1.70;99.90
17405;DHT22;8820;54.604;18.226;2023-01-26T07:11:58;1.70;99.90
17405;DHT22;8820;54.604;18.226;2023-01-26T07:14:29;1.70;99.90
17405;DHT22;8820;54.604;18.226;2023-01-26T07:16:58;1.70;99.90
17405;DHT22;8820;54.604;18.226;2023-01-26T07:19:27;1.70;99.90
17405;DHT22;8820;54.604;18.226;2023-01-26T07:21:59;1.70;99.90
17405;DHT22;8820;54.604;18.226;2023-01-26T07:24:29;1.60;99.90
17405;DHT22;8820;54.604;18.226;2023-01-26T07:26:57;1.60;99.90
17405;DHT22;8820;54.604;18.226;2023-01-26T07:29:28;1.70;99.90
17405;DHT22;8820;54.604;18.226;2023-01-26T07:31:57;1.70;99.90
17405;DHT22;8820;54.604;18.226;2023-01-26T07:34:26;1.70;99.90
17405;DHT22;8820;54.604;18.226;2023-01-26T07:37:09;1.60;99.90
17405;DHT22;8820;54.604;18.226;2023-01-26T07:39:39;1.50;99.90
17405;DHT22;8820;54.604;18.226;2023-01-26T07:42:09;1.60;99.90
17405;DHT22;8820;54.604;18.226;2023-01-26T07:44:58;1.60;99.90
17405;DHT22;8820;54.604;18.226;2023-01-26T07:47:31;1.70;99.90
17405;DHT22;8820;54.604;18.226;2023-01-26T07:50:03;1.70;99.90
17405;DHT22;8820;54.604;18.226;2023-01-26T07:52:32;1.70;99.90
17405;DHT22;8820;54.604;18.226;2023-01-26T07:55:01;1.60;99.90
17405;DHT22;8820;54.604;18.226;2023-01-26T07:57:30;1.70;99.90
17405;DHT22;8820;54.604;18.226;2023-01-26T08:00:02;1.80;99.90
17405;DHT22;8820;54.604;18.226;2023-01-26T08:02:37;1.70;99.90
17405;DHT22;8820;54.604;18.226;2023-01-26T08:05:07;1.70;99.90
17405;DHT22;8820;54.604;18.226;2023-01-26T08:07:36;1.70;99.90
17405;DHT22;8820;54.604;18.226;2023-01-26T08:10:06;1.70;99.90
17405;DHT22;8820;54.604;18.226;2023-01-26T08:12:40;1.60;99.90
17405;DHT22;8820;54.604;18.226;2023-01-26T08:15:11;1.60;99.90
17405;DHT22;8820;54.604;18.226;2023-01-26T08:17:40;1.60;99.90
17405;DHT22;8820;54.604;18.226;2023-01-26T08:20:10;1.70;99.90
17405;DHT22;8820;54.604;18.226;2023-01-26T08:22:40;1.70;99.90
17405;DHT22;8820;54.604;18.226;2023-01-26T08:25:09;1.70;99.90
17405;DHT22;8820;54.604;18.226;2023-01-26T08:27:38;1.70;99.90
17405;DHT22;8820;54.604;18.226;2023-01-26T08:30:08;1.80;99.90
17405;DHT22;8820;54.604;18.226;2023-01-26T08:32:39;1.80;99.90
17405;DHT22;8820;54.604;18.226;2023-01-26T08:35:08;1.70;99.90
17405;DHT22;8820;54.604;18.226;2023-01-26T08:37:37;1.60;99.90
17405;DHT22;8820;54.604;18.226;2023-01-26T08:40:08;1.80;99.90
17405;DHT22;8820;54.604;18.226;2023-01-26T08:42:38;1.80;99.90
17405;DHT22;8820;54.604;18.226;2023-01-26T08:45:07;1.80;99.90
17405;DHT22;8820;54.604;18.226;2023-01-26T08:47:38;1.90;99.90
17405;DHT22;8820;54.604;18.226;2023-01-26T08:50:08;1.90;99.90
17405;DHT22;8820;54.604;18.226;2023-01-26T08:52:38;1.90;99.90
17405;DHT22;8820;54.604;18.226;2023-01-26T08:55:07;1.90;99.90
17405;DHT22;8820;54.604;18.226;2023-01-26T08:57:36;1.90;99.90
17405;DHT22;8820;54.604;18.226;2023-01-26T09:00:06;2.00;99.90
17405;DHT22;8820;54.604;18.226;2023-01-26T09:02:35;2.00;99.90
17405;DHT22;8820;54.604;18.226;2023-01-26T09:05:07;2.10;99.90
17405;DHT22;8820;54.604;18.226;2023-01-26T09:07:36;2.00;99.90
17405;DHT22;8820;54.604;18.226;2023-01-26T09:10:06;2.00;99.90
17405;DHT22;8820;54.604;18.226;2023-01-26T09:12:36;2.00;99.90
17405;DHT22;8820;54.604;18.226;2023-01-26T09:15:08;2.00;99.90
17405;DHT22;8820;54.604;18.226;2023-01-26T09:17:39;1.90;99.90
17405;DHT22;8820;54.604;18.226;2023-01-26T09:20:12;2.00;99.90
17405;DHT22;8820;54.604;18.226;2023-01-26T09:22:40;2.20;99.90
17405;DHT22;8820;54.604;18.226;2023-01-26T09:25:10;2.20;99.90
17405;DHT22;8820;54.604;18.226;2023-01-26T09:27:39;2.10;99.90
17405;DHT22;8820;54.604;18.226;2023-01-26T09:30:09;2.10;99.90
17405;DHT22;8820;54.604;18.226;2023-01-26T09:32:38;2.20;99.90
17405;DHT22;8820;54.604;18.226;2023-01-26T09:35:07;2.10;99.90
17405;DHT22;8820;54.604;18.226;2023-01-26T09:37:43;2.10;99.90
17405;DHT22;8820;54.604;18.226;2023-01-26T09:40:16;2.20;99.90
17405;DHT22;8820;54.604;18.226;2023-01-26T09:43:00;2.30;99.90
17405;DHT22;8820;54.604;18.226;2023-01-26T09:45:36;2.30;99.90
17405;DHT22;8820;54.604;18.226;2023-01-26T09:48:23;2.40;99.90
17405;DHT22;8820;54.604;18.226;2023-01-26T09:50:56;2.40;99.90
17405;DHT22;8820;54.604;18.226;2023-01-26T09:53:39;2.40;99.90
17405;DHT22;8820;54.604;18.226;2023-01-26T09:56:14;2.40;99.90
17405;DHT22;8820;54.604;18.226;2023-01-26T09:58:48;2.40;99.90
17405;DHT22;8820;54.604;18.226;2023-01-26T10:01:23;2.50;99.90
17405;DHT22;8820;54.604;18.226;2023-01-26T10:04:00;2.50;99.90
17405;DHT22;8820;54.604;18.226;2023-01-26T10:06:32;2.50;99.90
17405;DHT22;8820;54.604;18.226;2023-01-26T10:09:20;2.50;99.90
17405;DHT22;8820;54.604;18.226;2023-01-26T10:11:53;2.50;99.90
17405;DHT22;8820;54.604;18.226;2023-01-26T10:14:30;2.60;99.90
17405;DHT22;8820;54.604;18.226;2023-01-26T10:17:06;2.60;99.90
17405;DHT22;8820;54.604;18.226;2023-01-26T10:19:44;2.60;99.90
17405;DHT22;8820;54.604;18.226;2023-01-26T10:22:19;2.70;99.90
17405;DHT22;8820;54.604;18.226;2023-01-26T10:24:53;2.70;99.90
17405;DHT22;8820;54.604;18.226;2023-01-26T10:27:23;2.60;99.90
17405;DHT22;8820;54.604;18.226;2023-01-26T10:29:52;2.60;99.90
17405;DHT22;8820;54.604;18.226;2023-01-26T10:32:20;2.60;99.90
17405;DHT22;8820;54.604;18.226;2023-01-26T10:34:50;2.60;99.90
17405;DHT22;8820;54.604;18.226;2023-01-26T10:37:21;2.60;99.90
17405;DHT22;8820;54.604;18.226;2023-01-26T10:39:59;2.60;99.90
17405;DHT22;8820;54.604;18.226;2023-01-26T10:42:30;2.70;99.90
17405;DHT22;8820;54.604;18.226;2023-01-26T10:45:03;2.70;99.90
17405;DHT22;8820;54.604;18.226;2023-01-26T10:47:32;2.70;99.90
17405;DHT22;8820;54.604;18.226;2023-01-26T10:50:20;2.80;99.90
17405;DHT22;8820;54.604;18.226;2023-01-26T10:53:12;2.80;99.90
17405;DHT22;8820;54.604;18.226;2023-01-26T10:55:58;2.80;99.90
17405;DHT22;8820;54.604;18.226;2023-01-26T10:58:41;2.90;99.90
17405;DHT22;8820;54.604;18.226;2023-01-26T11:01:12;2.90;99.90
17405;DHT22;8820;54.604;18.226;2023-01-26T11:03:59;3.00;99.90
17405;DHT22;8820;54.604;18.226;2023-01-26T11:06:29;3.00;99.90
17405;DHT22;8820;54.604;18.226;2023-01-26T11:09:10;3.00;99.90
17405;DHT22;8820;54.604;18.226;2023-01-26T11:12:00;3.00;99.90
17405;DHT22;8820;54.604;18.226;2023-01-26T11:14:30;3.00;99.90
17405;DHT22;8820;54.604;18.226;2023-01-26T11:17:08;3.00;99.90
17405;DHT22;8820;54.604;18.226;2023-01-26T11:22:54;2.90;99.90
17405;DHT22;8820;54.604;18.226;2023-01-26T11:25:30;2.80;99.90
17405;DHT22;8820;54.604;18.226;2023-01-26T11:28:15;2.90;99.90
17405;DHT22;8820;54.604;18.226;2023-01-26T11:31:02;2.90;99.90
17405;DHT22;8820;54.604;18.226;2023-01-26T11:33:39;3.00;99.90
17405;DHT22;8820;54.604;18.226;2023-01-26T11:36:17;2.90;99.90
17405;DHT22;8820;54.604;18.226;2023-01-26T11:38:56;2.90;99.90
17405;DHT22;8820;54.604;18.226;2023-01-26T11:41:37;3.00;99.90
17405;DHT22;8820;54.604;18.226;2023-01-26T11:44:24;3.00;99.90
17405;DHT22;8820;54.604;18.226;2023-01-26T11:47:05;3.10;99.90
17405;DHT22;8820;54.604;18.226;2023-01-26T11:50:03;3.00;99.90
17405;DHT22;8820;54.604;18.226;2023-01-26T11:52:40;3.00;99.90
17405;DHT22;8820;54.604;18.226;2023-01-26T11:55:19;3.00;99.90
17405;DHT22;8820;54.604;18.226;2023-01-26T11:58:01;3.00;99.90
17405;DHT22;8820;54.604;18.226;2023-01-26T12:00:40;3.00;99.90
17405;DHT22;8820;54.604;18.226;2023-01-26T12:03:17;3.00;99.90
17405;DHT22;8820;54.604;18.226;2023-01-26T12:05:51;3.00;99.90
17405;DHT22;8820;54.604;18.226;2023-01-26T12:08:24;3.00;99.90
17405;DHT22;8820;54.604;18.226;2023-01-26T12:11:00;3.00;99.90
17405;DHT22;8820;54.604;18.226;2023-01-26T12:14:03;3.10;99.90
17405;DHT22;8820;54.604;18.226;2023-01-26T12:16:43;3.10;99.90
17405;DHT22;8820;54.604;18.226;2023-01-26T12:19:27;3.20;99.90
17405;DHT22;8820;54.604;18.226;2023-01-26T12:22:04;3.10;99.90
17405;DHT22;8820;54.604;18.226;2023-01-26T12:24:36;3.00;99.90
17405;DHT22;8820;54.604;18.226;2023-01-26T12:27:30;3.00;99.90
17405;DHT22;8820;54.604;18.226;2023-01-26T12:30:07;3.00;99.90
17405;DHT22;8820;54.604;18.226;2023-01-26T12:32:48;3.10;99.90
17405;DHT22;8820;54.604;18.226;2023-01-26T12:35:30;3.00;99.90
17405;DHT22;8820;54.604;18.226;2023-01-26T12:38:25;3.00;99.90
17405;DHT22;8820;54.604;18.226;2023-01-26T12:41:25;3.00;99.90
17405;DHT22;8820;54.604;18.226;2023-01-26T12:44:11;3.00;99.90
17405;DHT22;8820;54.604;18.226;2023-01-26T12:46:49;3.10;99.90
17405;DHT22;8820;54.604;18.226;2023-01-26T12:49:23;3.20;99.90
17405;DHT22;8820;54.604;18.226;2023-01-26T12:51:57;3.20;99.90
17405;DHT22;8820;54.604;18.226;2023-01-26T12:54:35;3.20;99.90
17405;DHT22;8820;54.604;18.226;2023-01-26T12:57:12;3.30;99.90
17405;DHT22;8820;54.604;18.226;2023-01-26T12:59:42;3.20;99.90
17405;DHT22;8820;54.604;18.226;2023-01-26T13:02:25;3.20;99.90
17405;DHT22;8820;54.604;18.226;2023-01-26T13:04:58;3.20;99.90
17405;DHT22;8820;54.604;18.226;2023-01-26T13:07:31;3.20;99.90
17405;DHT22;8820;54.604;18.226;2023-01-26T13:10:21;3.20;99.90
17405;DHT22;8820;54.604;18.226;2023-01-26T13:12:56;3.20;99.90
17405;DHT22;8820;54.604;18.226;2023-01-26T13:15:27;3.20;99.90
17405;DHT22;8820;54.604;18.226;2023-01-26T13:17:58;3.10;99.90
17405;DHT22;8820;54.604;18.226;2023-01-26T13:20:44;3.00;99.90
17405;DHT22;8820;54.604;18.226;2023-01-26T13:23:40;3.00;99.90
17405;DHT22;8820;54.604;18.226;2023-01-26T13:26:20;3.10;99.90
17405;DHT22;8820;54.604;18.226;2023-01-26T13:28:51;3.10;99.90
17405;DHT22;8820;54.604;18.226;2023-01-26T13:31:40;3.20;99.90
17405;DHT22;8820;54.604;18.226;2023-01-26T13:34:09;3.30;99.90
17405;DHT22;8820;54.604;18.226;2023-01-26T13:36:41;3.30;99.90
17405;DHT22;8820;54.604;18.226;2023-01-26T13:39:21;3.40;99.90
17405;DHT22;8820;54.604;18.226;2023-01-26T13:41:52;3.40;99.90
17405;DHT22;8820;54.604;18.226;2023-01-26T13:44:25;3.40;99.90
17405;DHT22;8820;54.604;18.226;2023-01-26T13:47:02;3.40;99.90
17405;DHT22;8820;54.604;18.226;2023-01-26T13:49:37;3.40;99.90
17405;DHT22;8820;54.604;18.226;2023-01-26T13:52:16;3.40;99.90
17405;DHT22;8820;54.604;18.226;2023-01-26T13:54:47;3.40;99.90
17405;DHT22;8820;54.604;18.226;2023-01-26T13:57:21;3.40;99.90
17405;DHT22;8820;54.604;18.226;2023-01-26T13:59:58;3.40;99.90
17405;DHT22;8820;54.604;18.226;2023-01-26T14:03:00;3.40;99.90
17405;DHT22;8820;54.604;18.226;2023-01-26T14:05:35;3.40;99.90
17405;DHT22;8820;54.604;18.226;2023-01-26T14:08:10;3.30;99.90
17405;DHT22;8820;54.604;18.226;2023-01-26T14:10:46;3.30;99.90
17405;DHT22;8820;54.604;18.226;2023-01-26T14:14:23;3.40;99.90
17405;DHT22;8820;54.604;18.226;2023-01-26T14:17:26;3.30;99.90
17405;DHT22;8820;54.604;18.226;2023-01-26T14:19:59;3.40;99.90
17405;DHT22;8820;54.604;18.226;2023-01-26T14:22:30;3.40;99.90
17405;DHT22;8820;54.604;18.226;2023-01-26T14:25:07;3.40;99.90
17405;DHT22;8820;54.604;18.226;2023-01-26T14:27:38;3.40;99.90
17405;DHT22;8820;54.604;18.226;2023-01-26T14:30:21;3.40;99.90
17405;DHT22;8820;54.604;18.226;2023-01-26T14:33:00;3.30;99.90
17405;DHT22;8820;54.604;18.226;2023-01-26T14:35:30;3.30;99.90
17405;DHT22;8820;54.604;18.226;2023-01-26T14:38:12;3.30;99.90
17405;DHT22;8820;54.604;18.226;2023-01-26T14:40:47;3.30;99.90
17405;DHT22;8820;54.604;18.226;2023-01-26T14:43:16;3.40;99.90
17405;DHT22;8820;54.604;18.226;2023-01-26T14:45:48;3.30;99.90
17405;DHT22;8820;54.604;18.226;2023-01-26T14:48:22;3.30;99.90
17405;DHT22;8820;54.604;18.226;2023-01-26T14:50:52;3.30;99.90
17405;DHT22;8820;54.604;18.226;2023-01-26T14:53:22;3.30;99.90
17405;DHT22;8820;54.604;18.226;2023-01-26T14:55:53;3.30;99.90
17405;DHT22;8820;54.604;18.226;2023-01-26T14:58:26;3.30;99.90
17405;DHT22;8820;54.604;18.226;2023-01-26T15:00:57;3.30;99.90
17405;DHT22;8820;54.604;18.226;2023-01-26T15:03:28;3.30;99.90
17405;DHT22;8820;54.604;18.226;2023-01-26T15:06:13;3.30;99.90
17405;DHT22;8820;54.604;18.226;2023-01-26T15:08:54;3.40;99.90
17405;DHT22;8820;54.604;18.226;2023-01-26T15:11:34;3.40;99.90
17405;DHT22;8820;54.604;18.226;2023-01-26T15:14:32;3.40;99.90
17405;DHT22;8820;54.604;18.226;2023-01-26T15:17:01;3.40;99.90
17405;DHT22;8820;54.604;18.226;2023-01-26T15:19:37;3.40;99.90
17405;DHT22;8820;54.604;18.226;2023-01-26T15:22:41;3.40;99.90
17405;DHT22;8820;54.604;18.226;2023-01-26T15:25:17;3.40;99.90
17405;DHT22;8820;54.604;18.226;2023-01-26T15:27:53;3.40;99.90
17405;DHT22;8820;54.604;18.226;2023-01-26T15:30:26;3.40;99.90
17405;DHT22;8820;54.604;18.226;2023-01-26T15:32:55;3.40;99.90
17405;DHT22;8820;54.604;18.226;2023-01-26T15:35:26;3.30;99.90
17405;DHT22;8820;54.604;18.226;2023-01-26T15:38:02;3.30;99.90
17405;DHT22;8820;54.604;18.226;2023-01-26T15:40:31;3.40;99.90
17405;DHT22;8820;54.604;18.226;2023-01-26T15:43:15;3.40;99.90
17405;DHT22;8820;54.604;18.226;2023-01-26T15:45:49;3.40;99.90
17405;DHT22;8820;54.604;18.226;2023-01-26T15:48:18;3.40;99.90
17405;DHT22;8820;54.604;18.226;2023-01-26T15:50:47;3.40;99.90
17405;DHT22;8820;54.604;18.226;2023-01-26T15:53:20;3.40;99.90
17405;DHT22;8820;54.604;18.226;2023-01-26T15:55:50;3.40;99.90
17405;DHT22;8820;54.604;18.226;2023-01-26T15:58:23;3.40;99.90
17405;DHT22;8820;54.604;18.226;2023-01-26T16:00:52;3.40;99.90
17405;DHT22;8820;54.604;18.226;2023-01-26T16:03:21;3.40;99.90
17405;DHT22;8820;54.604;18.226;2023-01-26T16:05:58;3.30;99.90
17405;DHT22;8820;54.604;18.226;2023-01-26T16:08:29;3.40;99.90
17405;DHT22;8820;54.604;18.226;2023-01-26T16:10:58;3.40;99.90
17405;DHT22;8820;54.604;18.226;2023-01-26T16:13:43;3.40;99.90
17405;DHT22;8820;54.604;18.226;2023-01-26T16:16:33;3.40;99.90
17405;DHT22;8820;54.604;18.226;2023-01-26T16:19:02;3.40;99.90
17405;DHT22;8820;54.604;18.226;2023-01-26T16:21:35;3.40;99.90
17405;DHT22;8820;54.604;18.226;2023-01-26T16:24:09;3.40;99.90
17405;DHT22;8820;54.604;18.226;2023-01-26T16:26:38;3.40;99.90
17405;DHT22;8820;54.604;18.226;2023-01-26T16:29:09;3.40;99.90
17405;DHT22;8820;54.604;18.226;2023-01-26T16:31:38;3.50;99.90
17405;DHT22;8820;54.604;18.226;2023-01-26T16:34:08;3.50;99.90
17405;DHT22;8820;54.604;18.226;2023-01-26T16:36:37;3.50;99.90
17405;DHT22;8820;54.604;18.226;2023-01-26T16:39:06;3.50;99.90
17405;DHT22;8820;54.604;18.226;2023-01-26T16:41:35;3.50;99.90
17405;DHT22;8820;54.604;18.226;2023-01-26T16:44:13;3.40;99.90
17405;DHT22;8820;54.604;18.226;2023-01-26T16:46:43;3.40;99.90
17405;DHT22;8820;54.604;18.226;2023-01-26T16:49:18;3.40;99.90